Time;durP1;ratioP1;P1;durP2;ratioP2;P2;SDS_P1;SDS_P2;PMS_P1;PMS_P2;Temp;Humidity;BMP_temperature;BMP_pressure;BME280_temperature;BME280_humidity;BME280_pressure;Samples;Min_cycle;Max_cycle;Signal;HPM_P1;HPM_P2
2021/03/08 00:01:57;;;;;;;22.93;14.33;;;;;;;;;;5036408;28;20243;-89
2021/03/08 00:04:25;;;;;;;18.43;12.40;;;;;;;;;;5036287;28;20183;-90
2021/03/08 00:06:51;;;;;;;21.47;12.97;;;;;;;;;;5034780;28;20288;-90
2021/03/08 00:09:17;;;;;;;21.90;12.83;;;;;;;;;;5036600;28;20200;-89
2021/03/08 00:11:42;;;;;;;23.00;14.30;;;;;;;;;;5035926;28;20693;-89
2021/03/08 00:14:07;;;;;;;22.43;14.53;;;;;;;;;;5035949;28;20199;-89
2021/03/08 00:16:33;;;;;;;20.80;13.87;;;;;;;;;;5036419;28;20608;-89
2021/03/08 00:18:58;;;;;;;22.23;13.07;;;;;;;;;;5036383;28;20203;-89
2021/03/08 00:21:24;;;;;;;22.73;14.20;;;;;;;;;;5035419;28;20259;-89
2021/03/08 00:23:50;;;;;;;22.30;13.73;;;;;;;;;;5035757;28;20180;-89
2021/03/08 00:26:15;;;;;;;21.93;13.73;;;;;;;;;;5034762;28;20234;-90
2021/03/08 00:28:40;;;;;;;22.40;14.03;;;;;;;;;;5036423;28;20184;-89
2021/03/08 00:31:06;;;;;;;22.47;13.47;;;;;;;;;;5034909;28;20185;-89
2021/03/08 00:33:31;;;;;;;20.23;13.47;;;;;;;;;;5035816;28;20172;-89
2021/03/08 00:35:57;;;;;;;23.07;13.43;;;;;;;;;;5035967;28;20177;-89
2021/03/08 00:38:22;;;;;;;22.63;14.30;;;;;;;;;;5035386;28;20526;-89
2021/03/08 00:40:47;;;;;;;23.93;13.97;;;;;;;;;;5035927;28;20526;-89
2021/03/08 00:43:13;;;;;;;19.93;13.23;;;;;;;;;;5034226;28;20619;-90
2021/03/08 00:45:38;;;;;;;22.03;14.90;;;;;;;;;;5035323;28;20172;-89
2021/03/08 00:48:03;;;;;;;19.73;12.60;;;;;;;;;;5035789;28;20537;-89
2021/03/08 00:50:29;;;;;;;19.10;12.30;;;;;;;;;;5034800;28;20180;-89
2021/03/08 00:52:54;;;;;;;20.37;12.40;;;;;;;;;;5035173;28;20187;-89
2021/03/08 00:55:20;;;;;;;17.30;11.83;;;;;;;;;;5035101;28;20255;-89
2021/03/08 00:57:45;;;;;;;19.63;13.00;;;;;;;;;;5035941;28;20175;-89
2021/03/08 01:00:12;;;;;;;15.80;10.57;;;;;;;;;;5033587;28;20590;-89
2021/03/08 01:02:37;;;;;;;13.80;10.10;;;;;;;;;;5035259;28;20240;-89
2021/03/08 01:05:03;;;;;;;15.47;9.83;;;;;;;;;;5035225;28;20173;-89
2021/03/08 01:07:28;;;;;;;14.37;9.57;;;;;;;;;;5035164;28;20184;-89
2021/03/08 01:09:54;;;;;;;14.10;9.90;;;;;;;;;;5035210;28;20234;-89
2021/03/08 01:12:19;;;;;;;11.83;8.67;;;;;;;;;;5034946;28;20181;-89
2021/03/08 01:14:44;;;;;;;12.00;7.73;;;;;;;;;;5035634;28;20565;-89
2021/03/08 01:17:10;;;;;;;10.97;7.90;;;;;;;;;;5035060;28;20169;-89
2021/03/08 01:19:35;;;;;;;9.70;7.07;;;;;;;;;;5035055;28;20176;-89
2021/03/08 01:22:01;;;;;;;7.63;6.20;;;;;;;;;;5034019;28;20200;-89
2021/03/08 01:24:26;;;;;;;6.30;5.27;;;;;;;;;;5034858;28;20631;-89
2021/03/08 01:26:51;;;;;;;8.57;5.53;;;;;;;;;;5035688;28;20190;-89
2021/03/08 01:29:17;;;;;;;6.63;5.20;;;;;;;;;;5035101;28;20176;-89
2021/03/08 01:31:42;;;;;;;8.73;5.20;;;;;;;;;;5035023;28;20169;-90
2021/03/08 01:34:07;;;;;;;8.13;5.40;;;;;;;;;;5034917;28;20229;-89
2021/03/08 01:36:33;;;;;;;7.80;5.07;;;;;;;;;;5035207;28;20502;-90
2021/03/08 01:38:58;;;;;;;6.77;4.23;;;;;;;;;;5034284;28;20550;-90
2021/03/08 01:41:23;;;;;;;7.90;5.10;;;;;;;;;;5034724;28;20197;-90
2021/03/08 01:43:49;;;;;;;7.13;4.70;;;;;;;;;;5034546;28;20184;-90
2021/03/08 01:46:14;;;;;;;6.87;5.00;;;;;;;;;;5034726;28;20252;-90
2021/03/08 01:48:39;;;;;;;6.10;4.40;;;;;;;;;;5034341;28;20635;-90
2021/03/08 01:51:05;;;;;;;6.60;3.90;;;;;;;;;;5034969;28;20172;-90
2021/03/08 01:53:31;;;;;;;5.70;3.77;;;;;;;;;;5034681;28;20176;-90
2021/03/08 01:55:56;;;;;;;4.20;3.77;;;;;;;;;;5035345;28;20176;-91
2021/03/08 01:58:23;;;;;;;4.77;3.50;;;;;;;;;;5034887;28;20196;-91
2021/03/08 02:00:48;;;;;;;3.50;3.20;;;;;;;;;;5032934;28;20550;-91
2021/03/08 02:03:14;;;;;;;3.83;3.37;;;;;;;;;;5033945;28;20322;-90
2021/03/08 02:05:40;;;;;;;4.40;3.47;;;;;;;;;;5033899;28;20251;-90
2021/03/08 02:08:06;;;;;;;5.03;3.63;;;;;;;;;;5034387;28;20168;-90
2021/03/08 02:10:34;;;;;;;5.10;3.70;;;;;;;;;;5033823;28;20631;-90
2021/03/08 02:13:11;;;;;;;5.53;3.43;;;;;;;;;;5034068;28;20264;-90
2021/03/08 02:15:42;;;;;;;5.30;4.07;;;;;;;;;;5033900;28;20521;-91
2021/03/08 02:18:20;;;;;;;5.03;3.97;;;;;;;;;;5034526;28;20172;-91
2021/03/08 02:20:55;;;;;;;4.93;3.60;;;;;;;;;;5033758;28;20160;-90
2021/03/08 02:23:23;;;;;;;6.10;3.90;;;;;;;;;;5033774;28;20626;-90
2021/03/08 02:25:51;;;;;;;4.23;3.07;;;;;;;;;;5034295;28;20736;-90
2021/03/08 02:28:52;;;;;;;6.37;4.00;;;;;;;;;;5033664;28;20256;-90
2021/03/08 02:31:18;;;;;;;5.10;3.77;;;;;;;;;;4992194;28;20182;-89
2021/03/08 02:33:46;;;;;;;4.50;3.37;;;;;;;;;;5025476;28;20220;-90
2021/03/08 02:36:12;;;;;;;3.77;3.30;;;;;;;;;;5034050;28;20168;-90
2021/03/08 02:38:43;;;;;;;4.50;3.80;;;;;;;;;;5033721;28;20259;-90
2021/03/08 02:41:14;;;;;;;4.97;3.63;;;;;;;;;;5034015;28;20196;-90
2021/03/08 02:43:41;;;;;;;4.83;3.87;;;;;;;;;;5034010;28;20177;-90
2021/03/08 02:46:10;;;;;;;5.53;4.20;;;;;;;;;;5034284;28;20686;-90
2021/03/08 02:48:37;;;;;;;6.33;4.10;;;;;;;;;;5033577;28;20616;-90
2021/03/08 02:51:05;;;;;;;4.73;3.93;;;;;;;;;;5034209;28;20180;-90
2021/03/08 02:53:32;;;;;;;6.70;4.50;;;;;;;;;;5033641;28;20169;-90
2021/03/08 02:56:02;;;;;;;5.43;4.17;;;;;;;;;;5033360;28;20195;-89
2021/03/08 02:58:29;;;;;;;4.97;4.20;;;;;;;;;;5032321;28;20179;-90
2021/03/08 03:00:56;;;;;;;5.20;4.23;;;;;;;;;;5033817;28;20169;-89
2021/03/08 03:03:22;;;;;;;7.77;4.93;;;;;;;;;;5034203;28;20231;-90
2021/03/08 03:05:48;;;;;;;5.70;4.60;;;;;;;;;;5033848;28;20256;-90
2021/03/08 03:08:14;;;;;;;5.70;4.53;;;;;;;;;;5033207;28;20200;-90
2021/03/08 03:10:40;;;;;;;6.03;4.50;;;;;;;;;;5033762;28;20247;-88
2021/03/08 03:13:06;;;;;;;6.50;4.50;;;;;;;;;;5033466;28;20191;-89
2021/03/08 03:15:38;;;;;;;8.07;5.10;;;;;;;;;;5033161;28;20176;-89
2021/03/08 03:18:05;;;;;;;8.07;5.20;;;;;;;;;;5033527;28;20197;-90
2021/03/08 03:20:32;;;;;;;7.07;5.00;;;;;;;;;;5033174;28;20177;-90
2021/03/08 03:22:58;;;;;;;10.17;5.97;;;;;;;;;;5033030;28;20562;-90
2021/03/08 03:25:24;;;;;;;9.77;6.40;;;;;;;;;;5033047;28;20180;-90
2021/03/08 03:27:50;;;;;;;8.87;6.20;;;;;;;;;;5032339;28;20505;-90
2021/03/08 03:30:17;;;;;;;9.10;6.20;;;;;;;;;;5033594;28;20175;-91
2021/03/08 03:32:43;;;;;;;13.87;7.73;;;;;;;;;;5032025;28;20643;-90
2021/03/08 03:35:09;;;;;;;10.10;7.27;;;;;;;;;;5034471;28;20181;-90
2021/03/08 03:37:35;;;;;;;10.27;7.43;;;;;;;;;;5036599;28;20616;-90
2021/03/08 03:40:00;;;;;;;12.33;8.50;;;;;;;;;;5036863;28;20279;-91
2021/03/08 03:42:26;;;;;;;12.33;7.80;;;;;;;;;;5037031;28;20200;-91
2021/03/08 03:44:51;;;;;;;14.53;8.60;;;;;;;;;;5036802;28;20172;-91
2021/03/08 03:47:17;;;;;;;13.73;9.13;;;;;;;;;;5036985;28;20235;-90
2021/03/08 03:49:42;;;;;;;15.23;9.73;;;;;;;;;;5036328;28;20172;-91
2021/03/08 03:52:07;;;;;;;14.23;8.93;;;;;;;;;;5035395;28;20185;-91
2021/03/08 03:54:33;;;;;;;16.03;9.63;;;;;;;;;;5036865;28;20183;-91
2021/03/08 03:57:01;;;;;;;16.83;11.10;;;;;;;;;;5036852;28;20177;-89
2021/03/08 03:59:28;;;;;;;14.80;9.60;;;;;;;;;;5035174;28;20571;-89
2021/03/08 04:01:57;;;;;;;16.07;9.43;;;;;;;;;;5036166;28;20236;-89
2021/03/08 04:04:29;;;;;;;14.27;9.13;;;;;;;;;;5036082;28;20172;-89
2021/03/08 04:06:54;;;;;;;12.87;7.97;;;;;;;;;;5036351;28;20176;-90
2021/03/08 04:09:21;;;;;;;12.83;8.57;;;;;;;;;;5036793;28;20226;-89
2021/03/08 04:11:48;;;;;;;12.00;8.30;;;;;;;;;;5036559;28;20183;-89
2021/03/08 04:14:15;;;;;;;14.00;8.53;;;;;;;;;;5035784;28;20176;-89
2021/03/08 04:16:42;;;;;;;11.30;8.87;;;;;;;;;;5036141;28;20255;-89
2021/03/08 04:19:08;;;;;;;12.00;8.73;;;;;;;;;;5036272;28;20310;-90
2021/03/08 04:21:34;;;;;;;12.80;9.20;;;;;;;;;;5034725;28;20211;-89
2021/03/08 04:24:00;;;;;;;12.53;9.27;;;;;;;;;;5035987;28;20183;-89
2021/03/08 04:26:26;;;;;;;14.80;10.63;;;;;;;;;;5036244;28;20177;-89
2021/03/08 04:28:51;;;;;;;15.30;9.47;;;;;;;;;;5036820;28;20181;-90
2021/03/08 04:31:17;;;;;;;17.33;10.83;;;;;;;;;;5035593;28;20254;-89
2021/03/08 04:33:43;;;;;;;19.90;12.10;;;;;;;;;;5034523;28;20184;-90
2021/03/08 04:36:09;;;;;;;24.07;13.27;;;;;;;;;;5036391;28;20177;-90
2021/03/08 04:38:35;;;;;;;17.87;12.17;;;;;;;;;;5035919;28;20612;-90
2021/03/08 04:41:00;;;;;;;17.43;11.07;;;;;;;;;;5035349;28;20168;-90
2021/03/08 04:43:26;;;;;;;17.00;10.30;;;;;;;;;;5035399;28;20173;-90
2021/03/08 04:45:55;;;;;;;14.10;9.87;;;;;;;;;;5033988;28;20200;-90
2021/03/08 04:48:21;;;;;;;15.93;8.87;;;;;;;;;;5034026;28;20183;-90
2021/03/08 04:50:48;;;;;;;13.30;9.27;;;;;;;;;;5036068;28;20172;-90
2021/03/08 04:53:14;;;;;;;17.17;9.80;;;;;;;;;;5035524;28;20183;-90
2021/03/08 04:55:40;;;;;;;18.43;10.50;;;;;;;;;;5035429;28;20172;-90
2021/03/08 04:58:05;;;;;;;21.27;12.43;;;;;;;;;;5035406;28;20220;-90
2021/03/08 05:00:30;;;;;;;19.00;12.17;;;;;;;;;;5034082;28;20188;-91
2021/03/08 05:02:56;;;;;;;18.63;11.17;;;;;;;;;;5035751;28;20277;-91
2021/03/08 05:05:23;;;;;;;22.63;13.10;;;;;;;;;;5035541;28;20180;-90
2021/03/08 05:07:52;;;;;;;22.07;12.97;;;;;;;;;;5035564;28;20713;-90
2021/03/08 05:10:18;;;;;;;19.03;12.40;;;;;;;;;;5034152;28;20176;-90
2021/03/08 05:12:44;;;;;;;21.47;12.47;;;;;;;;;;5035087;28;20177;-90
2021/03/08 05:15:11;;;;;;;16.37;10.70;;;;;;;;;;5034988;28;20176;-90
2021/03/08 05:17:37;;;;;;;20.17;10.27;;;;;;;;;;5035191;28;20198;-91
2021/03/08 05:20:10;;;;;;;22.17;10.63;;;;;;;;;;5034027;28;20566;-91
2021/03/08 05:22:36;;;;;;;17.50;10.50;;;;;;;;;;5034121;28;20553;-90
2021/03/08 05:25:02;;;;;;;17.97;10.57;;;;;;;;;;5035147;28;20180;-90
2021/03/08 05:27:27;;;;;;;17.20;10.30;;;;;;;;;;5035110;28;20207;-90
2021/03/08 05:29:54;;;;;;;22.47;11.87;;;;;;;;;;5034759;28;20210;-90
2021/03/08 05:32:25;;;;;;;18.53;10.93;;;;;;;;;;5034523;28;20188;-91
2021/03/08 05:34:51;;;;;;;18.03;11.23;;;;;;;;;;5034677;28;20196;-91
2021/03/08 05:37:20;;;;;;;20.10;11.27;;;;;;;;;;5034761;28;20218;-92
2021/03/08 05:39:45;;;;;;;16.50;10.23;;;;;;;;;;5034766;28;20323;-90
2021/03/08 05:42:11;;;;;;;17.60;9.87;;;;;;;;;;5033249;28;20299;-90
2021/03/08 05:44:41;;;;;;;17.20;10.07;;;;;;;;;;5034560;28;20187;-90
2021/03/08 05:47:17;;;;;;;19.50;11.10;;;;;;;;;;5034631;28;20176;-89
2021/03/08 05:50:01;;;;;;;15.27;9.50;;;;;;;;;;5034759;28;20510;-89
2021/03/08 05:52:29;;;;;;;17.30;11.07;;;;;;;;;;5034968;28;20180;-89
2021/03/08 05:54:57;;;;;;;24.20;13.40;;;;;;;;;;5034429;28;20168;-89
2021/03/08 05:57:33;;;;;;;26.53;15.67;;;;;;;;;;5033683;28;20173;-89
2021/03/08 06:00:15;;;;;;;20.53;13.13;;;;;;;;;;5034147;28;20607;-88
2021/03/08 06:02:53;;;;;;;14.37;9.50;;;;;;;;;;5032888;28;20612;-89
2021/03/08 06:05:37;;;;;;;15.10;10.33;;;;;;;;;;5033998;28;20622;-89
2021/03/08 06:08:20;;;;;;;16.00;9.10;;;;;;;;;;5034418;28;20164;-89
2021/03/08 06:10:46;;;;;;;13.83;9.13;;;;;;;;;;5034214;28;20172;-88
2021/03/08 06:13:15;;;;;;;10.40;8.30;;;;;;;;;;5034292;28;20254;-89
2021/03/08 06:15:43;;;;;;;11.23;8.70;;;;;;;;;;5033968;28;20682;-89
2021/03/08 06:18:09;;;;;;;9.00;6.87;;;;;;;;;;5034263;28;20175;-89
2021/03/08 06:20:34;;;;;;;12.87;10.40;;;;;;;;;;5034030;28;20172;-89
2021/03/08 06:23:01;;;;;;;7.93;6.80;;;;;;;;;;5033844;28;20224;-89
2021/03/08 06:25:27;;;;;;;10.80;8.53;;;;;;;;;;5033637;28;20177;-89
2021/03/08 06:27:53;;;;;;;9.53;7.57;;;;;;;;;;5033890;28;20303;-89
2021/03/08 06:30:19;;;;;;;10.30;8.47;;;;;;;;;;5033846;28;20207;-90
2021/03/08 06:32:45;;;;;;;14.07;9.33;;;;;;;;;;5033631;28;20183;-90
2021/03/08 06:35:12;;;;;;;9.27;8.30;;;;;;;;;;5033834;28;20242;-90
2021/03/08 06:37:38;;;;;;;9.20;7.70;;;;;;;;;;5034069;28;20251;-89
2021/03/08 06:40:04;;;;;;;8.67;7.77;;;;;;;;;;5033974;28;20711;-90
2021/03/08 06:42:29;;;;;;;7.60;6.73;;;;;;;;;;5034100;28;20200;-90
2021/03/08 06:44:54;;;;;;;7.10;6.27;;;;;;;;;;5033941;28;20184;-89
2021/03/08 06:47:20;;;;;;;8.60;6.60;;;;;;;;;;5033364;28;20168;-89
2021/03/08 06:49:45;;;;;;;7.70;6.73;;;;;;;;;;5032563;28;20202;-89
2021/03/08 06:52:12;;;;;;;9.53;7.80;;;;;;;;;;5034188;28;20172;-89
2021/03/08 06:54:42;;;;;;;8.13;7.33;;;;;;;;;;5033926;28;20172;-89
2021/03/08 06:57:26;;;;;;;8.03;7.23;;;;;;;;;;5033771;28;20248;-89
2021/03/08 06:59:52;;;;;;;9.53;8.57;;;;;;;;;;5033630;28;20260;-90
2021/03/08 07:02:20;;;;;;;14.90;13.30;;;;;;;;;;5031952;28;20282;-90
2021/03/08 07:04:48;;;;;;;10.40;9.40;;;;;;;;;;5033299;28;20636;-90
2021/03/08 07:07:14;;;;;;;10.37;9.27;;;;;;;;;;5033630;28;20179;-91
2021/03/08 07:09:49;;;;;;;17.50;15.80;;;;;;;;;;5034197;28;20639;-92
2021/03/08 07:12:15;;;;;;;20.57;12.03;;;;;;;;;;5035873;28;20189;-91
2021/03/08 07:14:41;;;;;;;11.23;9.73;;;;;;;;;;5051895;28;20549;-90
2021/03/08 07:17:25;;;;;;;24.90;22.60;;;;;;;;;;5056141;28;20172;-90
2021/03/08 07:19:54;;;;;;;13.73;12.33;;;;;;;;;;5057443;28;20176;-90
2021/03/08 07:22:41;;;;;;;29.83;16.03;;;;;;;;;;5057331;28;20230;-90
2021/03/08 07:25:14;;;;;;;14.63;10.40;;;;;;;;;;5057278;28;20176;-90
2021/03/08 07:27:43;;;;;;;11.47;8.10;;;;;;;;;;5055764;28;20183;-90
2021/03/08 07:30:09;;;;;;;28.17;16.47;;;;;;;;;;5055646;28;20253;-90
2021/03/08 07:32:34;;;;;;;14.57;10.93;;;;;;;;;;5057200;28;20171;-89
2021/03/08 07:34:59;;;;;;;10.03;8.40;;;;;;;;;;5056605;28;20168;-89
2021/03/08 07:37:25;;;;;;;10.43;8.53;;;;;;;;;;5056986;28;20171;-89
2021/03/08 07:39:51;;;;;;;10.00;6.47;;;;;;;;;;5057153;28;20241;-89
2021/03/08 07:42:17;;;;;;;9.33;7.10;;;;;;;;;;5057057;28;20195;-88
2021/03/08 07:44:49;;;;;;;8.27;6.60;;;;;;;;;;5056888;28;20179;-88
2021/03/08 07:47:15;;;;;;;7.10;6.30;;;;;;;;;;5056531;28;20168;-88
2021/03/08 07:49:41;;;;;;;7.67;5.33;;;;;;;;;;5056637;28;20176;-88
2021/03/08 07:52:07;;;;;;;8.77;7.97;;;;;;;;;;5052623;28;20179;-88
2021/03/08 07:54:53;;;;;;;8.43;5.50;;;;;;;;;;5056456;28;20202;-87
2021/03/08 07:57:18;;;;;;;13.57;9.43;;;;;;;;;;5054419;28;20241;-88
2021/03/08 07:59:44;;;;;;;10.57;7.90;;;;;;;;;;5056030;28;20172;-88
2021/03/08 08:02:09;;;;;;;6.90;5.20;;;;;;;;;;5056730;28;20365;-88
2021/03/08 08:04:35;;;;;;;7.27;6.53;;;;;;;;;;5054942;28;20171;-88
2021/03/08 08:07:04;;;;;;;16.13;9.20;;;;;;;;;;5054685;28;20172;-86
2021/03/08 08:09:30;;;;;;;10.97;6.67;;;;;;;;;;5055905;28;20182;-87
2021/03/08 08:11:56;;;;;;;8.33;6.03;;;;;;;;;;5056754;28;20255;-87
2021/03/08 08:14:23;;;;;;;7.83;6.17;;;;;;;;;;5056442;28;20689;-88
2021/03/08 08:16:51;;;;;;;6.17;4.07;;;;;;;;;;5056330;28;20650;-87
2021/03/08 08:19:19;;;;;;;5.57;4.70;;;;;;;;;;5055993;28;20175;-87
2021/03/08 08:21:45;;;;;;;6.03;5.00;;;;;;;;;;5054781;28;20230;-87
2021/03/08 08:24:14;;;;;;;6.63;4.97;;;;;;;;;;5055996;28;20257;-87
2021/03/08 08:26:43;;;;;;;8.73;5.77;;;;;;;;;;5056408;28;20199;-88
2021/03/08 08:29:08;;;;;;;8.13;5.30;;;;;;;;;;5055545;28;20168;-87
2021/03/08 08:31:52;;;;;;;8.60;5.33;;;;;;;;;;5055804;28;20182;-87
2021/03/08 08:34:32;;;;;;;8.30;5.20;;;;;;;;;;5055760;28;20175;-87
2021/03/08 08:37:24;;;;;;;5.87;4.03;;;;;;;;;;5055738;28;20551;-87
2021/03/08 08:39:52;;;;;;;4.60;3.70;;;;;;;;;;5051059;28;20346;-87
2021/03/08 08:42:29;;;;;;;7.77;6.67;;;;;;;;;;5055448;28;20200;-86
2021/03/08 08:44:56;;;;;;;6.57;5.33;;;;;;;;;;5055544;28;20163;-87
2021/03/08 08:47:29;;;;;;;18.23;8.97;;;;;;;;;;5053918;28;20179;-87
2021/03/08 08:49:56;;;;;;;5.77;4.27;;;;;;;;;;5055159;28;20680;-87
2021/03/08 08:52:40;;;;;;;4.10;3.20;;;;;;;;;;5037613;28;20278;-88
2021/03/08 08:55:06;;;;;;;5.60;3.37;;;;;;;;;;5055327;28;20187;-87
2021/03/08 08:57:31;;;;;;;5.07;3.57;;;;;;;;;;5054136;28;20176;-87
2021/03/08 09:00:17;;;;;;;4.40;2.93;;;;;;;;;;5053877;28;20176;-87
2021/03/08 09:02:43;;;;;;;8.50;5.17;;;;;;;;;;5054891;28;20244;-87
2021/03/08 09:05:27;;;;;;;16.80;9.47;;;;;;;;;;5052025;28;20180;-87
2021/03/08 09:08:11;;;;;;;3.47;3.17;;;;;;;;;;5038935;28;20188;-87
2021/03/08 09:10:37;;;;;;;4.80;3.50;;;;;;;;;;5051827;28;20233;-87
2021/03/08 09:13:09;;;;;;;8.67;4.60;;;;;;;;;;5048098;28;20183;-86
2021/03/08 09:15:34;;;;;;;4.77;3.73;;;;;;;;;;5044737;28;20169;-87
2021/03/08 09:18:02;;;;;;;7.60;4.40;;;;;;;;;;5042345;28;20203;-87
2021/03/08 09:20:28;;;;;;;6.30;3.60;;;;;;;;;;5052717;28;20518;-86
2021/03/08 09:22:58;;;;;;;4.83;3.40;;;;;;;;;;5054759;28;20284;-86
2021/03/08 09:25:33;;;;;;;6.57;3.70;;;;;;;;;;5054550;28;20175;-86
2021/03/08 09:28:00;;;;;;;5.40;3.10;;;;;;;;;;5053458;28;20213;-86
2021/03/08 09:30:33;;;;;;;4.00;3.40;;;;;;;;;;5054732;28;20171;-86
2021/03/08 09:33:00;;;;;;;6.80;4.73;;;;;;;;;;5054937;28;20180;-86
2021/03/08 09:35:27;;;;;;;8.50;5.23;;;;;;;;;;5055225;28;20182;-87
2021/03/08 09:37:54;;;;;;;7.73;4.40;;;;;;;;;;5054465;28;20325;-86
2021/03/08 09:40:20;;;;;;;4.60;4.03;;;;;;;;;;5054187;28;20665;-87
2021/03/08 09:42:46;;;;;;;5.60;4.90;;;;;;;;;;5052819;28;20219;-87
2021/03/08 09:45:25;;;;;;;6.47;4.60;;;;;;;;;;5054051;28;20585;-88
2021/03/08 09:47:51;;;;;;;6.40;3.77;;;;;;;;;;5052703;28;20172;-88
2021/03/08 09:50:18;;;;;;;2.80;2.60;;;;;;;;;;5054675;28;20174;-90
2021/03/08 09:52:44;;;;;;;5.27;3.50;;;;;;;;;;5054537;28;20190;-87
2021/03/08 09:55:11;;;;;;;3.60;3.30;;;;;;;;;;5052101;28;20218;-86
2021/03/08 09:57:37;;;;;;;4.67;4.00;;;;;;;;;;5054429;28;20168;-88
2021/03/08 10:00:13;;;;;;;9.07;5.30;;;;;;;;;;5052509;28;20531;-86
2021/03/08 10:02:39;;;;;;;5.73;3.53;;;;;;;;;;5053569;28;20292;-86
2021/03/08 10:05:06;;;;;;;3.67;3.00;;;;;;;;;;5052536;28;20172;-86
2021/03/08 10:07:31;;;;;;;4.77;3.43;;;;;;;;;;5053673;28;20172;-85
2021/03/08 10:10:07;;;;;;;5.13;3.90;;;;;;;;;;5053935;28;20176;-86
2021/03/08 10:12:32;;;;;;;5.50;3.80;;;;;;;;;;5053953;28;20201;-86
2021/03/08 10:14:59;;;;;;;4.03;3.50;;;;;;;;;;5053801;28;20634;-87
2021/03/08 10:17:24;;;;;;;3.60;3.20;;;;;;;;;;5052563;28;20639;-87
2021/03/08 10:19:56;;;;;;;4.67;3.70;;;;;;;;;;5053492;28;20630;-87
2021/03/08 10:22:31;;;;;;;10.73;7.37;;;;;;;;;;5053492;28;20218;-87
2021/03/08 10:24:58;;;;;;;8.10;6.37;;;;;;;;;;5053377;28;20175;-86
2021/03/08 10:27:23;;;;;;;15.60;9.17;;;;;;;;;;5053361;28;20176;-87
2021/03/08 10:29:51;;;;;;;10.40;5.67;;;;;;;;;;5051780;28;20198;-87
2021/03/08 10:32:17;;;;;;;10.00;7.67;;;;;;;;;;5053369;28;20254;-86
2021/03/08 10:34:42;;;;;;;7.00;6.30;;;;;;;;;;5053248;28;20199;-86
2021/03/08 10:37:10;;;;;;;19.63;8.67;;;;;;;;;;5053539;28;20530;-86
2021/03/08 10:39:35;;;;;;;6.43;4.13;;;;;;;;;;5052985;28;20545;-85
2021/03/08 10:42:01;;;;;;;21.93;13.40;;;;;;;;;;5053010;28;20192;-86
2021/03/08 10:44:26;;;;;;;10.17;7.73;;;;;;;;;;5053823;28;20171;-86
2021/03/08 10:46:51;;;;;;;16.43;8.40;;;;;;;;;;5057540;28;20168;-86
2021/03/08 10:49:17;;;;;;;15.53;8.50;;;;;;;;;;5057603;28;20168;-86
2021/03/08 10:51:42;;;;;;;7.90;5.33;;;;;;;;;;5057680;28;20167;-86
2021/03/08 10:54:12;;;;;;;14.73;7.23;;;;;;;;;;5057539;28;20186;-86
2021/03/08 10:56:38;;;;;;;15.73;9.53;;;;;;;;;;5057305;28;20644;-86
2021/03/08 10:59:20;;;;;;;12.07;10.13;;;;;;;;;;5057446;28;20172;-86
2021/03/08 11:01:58;;;;;;;21.97;10.63;;;;;;;;;;5056811;28;20231;-86
2021/03/08 11:04:26;;;;;;;8.63;5.20;;;;;;;;;;5057116;28;20159;-86
2021/03/08 11:06:52;;;;;;;7.73;4.90;;;;;;;;;;5056876;28;20171;-86
2021/03/08 11:09:24;;;;;;;11.00;7.73;;;;;;;;;;5057159;28;20526;-87
2021/03/08 11:11:50;;;;;;;7.80;4.50;;;;;;;;;;5057017;28;20526;-87
2021/03/08 11:14:15;;;;;;;8.97;5.80;;;;;;;;;;5056942;28;20179;-87
2021/03/08 11:16:48;;;;;;;10.80;6.60;;;;;;;;;;5057392;28;20171;-86
2021/03/08 11:19:14;;;;;;;11.77;6.30;;;;;;;;;;5057030;28;20172;-87
2021/03/08 11:21:40;;;;;;;9.37;7.87;;;;;;;;;;5057099;28;20203;-87
2021/03/08 11:24:15;;;;;;;4.17;3.77;;;;;;;;;;5057129;28;20168;-86
2021/03/08 11:26:41;;;;;;;5.50;4.50;;;;;;;;;;5057052;28;20168;-86
2021/03/08 11:29:20;;;;;;;9.27;5.30;;;;;;;;;;5056771;28;20517;-87
2021/03/08 11:31:51;;;;;;;5.53;3.57;;;;;;;;;;5056968;28;20168;-87
2021/03/08 11:34:17;;;;;;;7.93;4.60;;;;;;;;;;5056915;28;20164;-88
2021/03/08 11:36:43;;;;;;;9.70;6.23;;;;;;;;;;5056800;28;20172;-89
2021/03/08 11:39:08;;;;;;;11.17;7.37;;;;;;;;;;5056680;28;20192;-88
2021/03/08 11:41:34;;;;;;;10.00;7.83;;;;;;;;;;5056638;28;20202;-89
2021/03/08 11:44:00;;;;;;;6.30;4.70;;;;;;;;;;5056764;28;20229;-88
2021/03/08 11:46:25;;;;;;;9.37;5.20;;;;;;;;;;5056415;28;20179;-86
2021/03/08 11:48:58;;;;;;;10.20;9.10;;;;;;;;;;5056095;28;20585;-86
2021/03/08 11:51:24;;;;;;;33.93;24.10;;;;;;;;;;5055602;28;20168;-86
2021/03/08 11:53:49;;;;;;;27.90;16.53;;;;;;;;;;5055172;28;20188;-86
2021/03/08 11:56:14;;;;;;;18.83;10.10;;;;;;;;;;5056067;28;20172;-88
2021/03/08 11:58:40;;;;;;;8.00;4.80;;;;;;;;;;5056275;28;20180;-88
2021/03/08 12:01:05;;;;;;;7.73;4.27;;;;;;;;;;5054269;28;20229;-86
2021/03/08 12:03:31;;;;;;;9.70;5.00;;;;;;;;;;5054111;28;20200;-89
2021/03/08 12:05:56;;;;;;;5.83;3.93;;;;;;;;;;5054313;28;20172;-88
2021/03/08 12:08:21;;;;;;;6.63;4.07;;;;;;;;;;5054596;28;20179;-88
2021/03/08 12:10:47;;;;;;;9.97;8.23;;;;;;;;;;5054472;28;20623;-86
2021/03/08 12:13:12;;;;;;;11.00;9.77;;;;;;;;;;5052693;28;20186;-87
2021/03/08 12:15:37;;;;;;;14.40;8.23;;;;;;;;;;5052618;28;20245;-87
2021/03/08 12:18:03;;;;;;;12.03;7.33;;;;;;;;;;5053660;28;20168;-87
2021/03/08 12:20:28;;;;;;;7.03;4.17;;;;;;;;;;5054048;28;20183;-87
2021/03/08 12:22:53;;;;;;;10.10;5.13;;;;;;;;;;5054136;28;20286;-88
2021/03/08 12:25:18;;;;;;;16.37;9.30;;;;;;;;;;5054484;28;20555;-87
2021/03/08 12:27:44;;;;;;;14.33;7.03;;;;;;;;;;5053093;28;20176;-87
2021/03/08 12:30:10;;;;;;;21.33;11.20;;;;;;;;;;5055692;28;20172;-88
2021/03/08 12:32:35;;;;;;;27.73;13.07;;;;;;;;;;5055388;28;20202;-88
2021/03/08 12:35:00;;;;;;;13.20;7.80;;;;;;;;;;5053380;28;20179;-88
2021/03/08 12:37:26;;;;;;;12.80;7.10;;;;;;;;;;5053637;28;20176;-88
2021/03/08 12:39:51;;;;;;;14.97;8.77;;;;;;;;;;5054846;28;20195;-88
2021/03/08 12:42:16;;;;;;;23.63;11.23;;;;;;;;;;5054828;28;20200;-88
2021/03/08 12:44:42;;;;;;;59.27;35.10;;;;;;;;;;5055116;28;20172;-87
2021/03/08 12:47:07;;;;;;;34.03;21.87;;;;;;;;;;5055572;28;20172;-87
2021/03/08 12:49:32;;;;;;;13.33;6.37;;;;;;;;;;5054824;28;20203;-87
2021/03/08 12:51:58;;;;;;;7.57;5.80;;;;;;;;;;5054151;28;20322;-87
2021/03/08 12:54:23;;;;;;;22.70;10.93;;;;;;;;;;5054984;28;20761;-88
2021/03/08 12:56:48;;;;;;;10.07;6.40;;;;;;;;;;5053638;28;20179;-87
2021/03/08 12:59:14;;;;;;;46.10;22.93;;;;;;;;;;5055526;28;20202;-88
2021/03/08 13:01:39;;;;;;;16.73;9.27;;;;;;;;;;5054679;28;20353;-88
2021/03/08 13:04:04;;;;;;;5.40;4.17;;;;;;;;;;5055192;28;20191;-88
2021/03/08 13:06:30;;;;;;;35.03;16.93;;;;;;;;;;5054517;28;20168;-87
2021/03/08 13:08:55;;;;;;;29.87;16.30;;;;;;;;;;5053810;28;20207;-88
2021/03/08 13:11:21;;;;;;;18.20;9.73;;;;;;;;;;5055257;28;20175;-87
2021/03/08 13:13:46;;;;;;;6.77;3.70;;;;;;;;;;5054690;28;20168;-87
2021/03/08 13:16:11;;;;;;;6.43;4.60;;;;;;;;;;5054417;28;20175;-87
2021/03/08 13:18:36;;;;;;;5.03;4.00;;;;;;;;;;5052594;28;20628;-87
2021/03/08 13:21:02;;;;;;;7.47;5.17;;;;;;;;;;5052699;28;20202;-88
2021/03/08 13:23:27;;;;;;;24.03;9.97;;;;;;;;;;5052711;28;20975;-87
2021/03/08 13:25:53;;;;;;;11.40;6.90;;;;;;;;;;5051543;28;20507;-87
2021/03/08 13:28:18;;;;;;;12.37;7.30;;;;;;;;;;5052868;28;20176;-87
2021/03/08 13:30:43;;;;;;;19.20;9.17;;;;;;;;;;5052970;28;20525;-87
2021/03/08 13:33:09;;;;;;;10.13;5.87;;;;;;;;;;5052730;28;20230;-88
2021/03/08 13:35:34;;;;;;;10.70;6.40;;;;;;;;;;5053677;28;20198;-87
2021/03/08 13:38:00;;;;;;;9.83;5.97;;;;;;;;;;5054235;28;20255;-87
2021/03/08 13:40:25;;;;;;;11.47;7.00;;;;;;;;;;5053475;28;20215;-87
2021/03/08 13:42:50;;;;;;;10.43;5.33;;;;;;;;;;5051740;28;20219;-88
2021/03/08 13:45:16;;;;;;;10.77;7.13;;;;;;;;;;5052277;28;20172;-86
2021/03/08 13:47:41;;;;;;;12.00;9.10;;;;;;;;;;5053938;28;20623;-87
2021/03/08 13:50:07;;;;;;;14.20;7.60;;;;;;;;;;5053475;28;20195;-86
2021/03/08 13:52:34;;;;;;;10.27;6.10;;;;;;;;;;5053829;28;20646;-86
2021/03/08 13:54:59;;;;;;;11.47;5.30;;;;;;;;;;5053887;28;20542;-87
2021/03/08 13:57:24;;;;;;;7.90;6.03;;;;;;;;;;5054279;28;20168;-87
2021/03/08 13:59:50;;;;;;;9.97;7.00;;;;;;;;;;5054183;28;20172;-87
2021/03/08 14:02:15;;;;;;;10.10;7.30;;;;;;;;;;5054678;28;20646;-87
2021/03/08 14:04:40;;;;;;;7.77;5.57;;;;;;;;;;5052064;28;20247;-87
2021/03/08 14:07:06;;;;;;;6.90;5.33;;;;;;;;;;5050050;28;20179;-86
2021/03/08 14:09:31;;;;;;;9.33;5.47;;;;;;;;;;5050562;28;20215;-86
2021/03/08 14:11:57;;;;;;;8.33;6.47;;;;;;;;;;5052080;28;20191;-86
2021/03/08 14:14:22;;;;;;;31.27;18.90;;;;;;;;;;5052250;28;20183;-86
2021/03/08 14:16:47;;;;;;;44.73;20.53;;;;;;;;;;5051792;28;20537;-87
2021/03/08 14:19:13;;;;;;;22.80;9.60;;;;;;;;;;5051023;28;20175;-87
2021/03/08 14:21:38;;;;;;;31.17;11.80;;;;;;;;;;5052186;28;20217;-87
2021/03/08 14:24:04;;;;;;;22.50;9.70;;;;;;;;;;5052169;28;20221;-87
2021/03/08 14:26:29;;;;;;;19.00;8.57;;;;;;;;;;5052205;28;20220;-87
2021/03/08 14:28:55;;;;;;;32.83;10.73;;;;;;;;;;5050794;28;20226;-87
2021/03/08 14:31:20;;;;;;;21.77;7.83;;;;;;;;;;5050542;28;20176;-88
2021/03/08 14:33:46;;;;;;;34.13;14.00;;;;;;;;;;5052202;28;20237;-87
2021/03/08 14:36:11;;;;;;;34.57;17.10;;;;;;;;;;5054242;28;20626;-88